sensor_id;sensor_type;location;lat;lon;timestamp;P1;durP1;ratioP1;P2;durP2;ratioP2
12253;SDS011;6189;52.526;13.390;2022-09-21T00:00:39;4.10;;;3.20;;
12253;SDS011;6189;52.526;13.390;2022-09-21T00:03:26;4.60;;;3.13;;
12253;SDS011;6189;52.526;13.390;2022-09-21T00:06:12;3.40;;;3.10;;
12253;SDS011;6189;52.526;13.390;2022-09-21T00:08:59;5.27;;;2.60;;
12253;SDS011;6189;52.526;13.390;2022-09-21T00:11:46;3.50;;;3.20;;
12253;SDS011;6189;52.526;13.390;2022-09-21T00:14:32;5.53;;;3.43;;
12253;SDS011;6189;52.526;13.390;2022-09-21T00:17:17;4.50;;;3.00;;
12253;SDS011;6189;52.526;13.390;2022-09-21T00:20:04;3.50;;;3.00;;
12253;SDS011;6189;52.526;13.390;2022-09-21T00:22:50;4.40;;;2.90;;
12253;SDS011;6189;52.526;13.390;2022-09-21T00:25:36;4.30;;;3.33;;
12253;SDS011;6189;52.526;13.390;2022-09-21T00:28:22;4.20;;;3.07;;
12253;SDS011;6189;52.526;13.390;2022-09-21T00:31:09;3.20;;;2.90;;
12253;SDS011;6189;52.526;13.390;2022-09-21T00:33:57;3.97;;;2.83;;
12253;SDS011;6189;52.526;13.390;2022-09-21T00:36:44;4.10;;;2.60;;
12253;SDS011;6189;52.526;13.390;2022-09-21T00:39:30;3.50;;;2.67;;
12253;SDS011;6189;52.526;13.390;2022-09-21T00:42:16;6.07;;;2.77;;
12253;SDS011;6189;52.526;13.390;2022-09-21T00:45:03;4.97;;;3.23;;
12253;SDS011;6189;52.526;13.390;2022-09-21T00:47:49;2.87;;;2.57;;
12253;SDS011;6189;52.526;13.390;2022-09-21T00:50:36;3.13;;;2.70;;
12253;SDS011;6189;52.526;13.390;2022-09-21T00:53:29;3.73;;;2.97;;
12253;SDS011;6189;52.526;13.390;2022-09-21T00:56:15;4.93;;;2.90;;
12253;SDS011;6189;52.526;13.390;2022-09-21T00:59:03;3.97;;;3.10;;
12253;SDS011;6189;52.526;13.390;2022-09-21T01:01:49;3.70;;;2.53;;
12253;SDS011;6189;52.526;13.390;2022-09-21T01:04:36;3.33;;;2.50;;
12253;SDS011;6189;52.526;13.390;2022-09-21T01:07:23;5.63;;;3.00;;
12253;SDS011;6189;52.526;13.390;2022-09-21T01:10:14;5.27;;;2.77;;
12253;SDS011;6189;52.526;13.390;2022-09-21T01:13:03;5.93;;;3.00;;
12253;SDS011;6189;52.526;13.390;2022-09-21T01:15:57;3.33;;;2.90;;
12253;SDS011;6189;52.526;13.390;2022-09-21T01:18:51;6.73;;;3.13;;
12253;SDS011;6189;52.526;13.390;2022-09-21T01:21:43;4.47;;;2.93;;
12253;SDS011;6189;52.526;13.390;2022-09-21T01:24:46;4.03;;;2.80;;
12253;SDS011;6189;52.526;13.390;2022-09-21T01:27:42;3.57;;;2.97;;
12253;SDS011;6189;52.526;13.390;2022-09-21T01:30:38;4.27;;;3.33;;
12253;SDS011;6189;52.526;13.390;2022-09-21T01:33:27;6.03;;;3.07;;
12253;SDS011;6189;52.526;13.390;2022-09-21T01:36:19;3.33;;;3.03;;
12253;SDS011;6189;52.526;13.390;2022-09-21T01:39:09;3.60;;;2.67;;
12253;SDS011;6189;52.526;13.390;2022-09-21T01:41:57;3.00;;;2.60;;
12253;SDS011;6189;52.526;13.390;2022-09-21T01:44:43;3.10;;;2.70;;
12253;SDS011;6189;52.526;13.390;2022-09-21T01:47:32;5.67;;;2.80;;
12253;SDS011;6189;52.526;13.390;2022-09-21T01:50:20;3.57;;;2.87;;
12253;SDS011;6189;52.526;13.390;2022-09-21T01:53:06;3.67;;;3.00;;
12253;SDS011;6189;52.526;13.390;2022-09-21T01:55:58;3.30;;;2.60;;
12253;SDS011;6189;52.526;13.390;2022-09-21T01:58:48;3.13;;;2.77;;
12253;SDS011;6189;52.526;13.390;2022-09-21T02:01:40;4.17;;;2.60;;
12253;SDS011;6189;52.526;13.390;2022-09-21T02:04:30;4.40;;;2.57;;
12253;SDS011;6189;52.526;13.390;2022-09-21T02:07:19;3.27;;;2.77;;
12253;SDS011;6189;52.526;13.390;2022-09-21T02:10:05;3.87;;;2.90;;
12253;SDS011;6189;52.526;13.390;2022-09-21T02:12:53;2.77;;;2.50;;
12253;SDS011;6189;52.526;13.390;2022-09-21T02:15:47;5.40;;;2.33;;
12253;SDS011;6189;52.526;13.390;2022-09-21T02:18:47;4.40;;;2.63;;
12253;SDS011;6189;52.526;13.390;2022-09-21T02:21:47;4.67;;;2.90;;
12253;SDS011;6189;52.526;13.390;2022-09-21T02:24:40;4.33;;;2.17;;
12253;SDS011;6189;52.526;13.390;2022-09-21T02:27:30;2.53;;;2.23;;
12253;SDS011;6189;52.526;13.390;2022-09-21T02:30:21;2.47;;;2.27;;
12253;SDS011;6189;52.526;13.390;2022-09-21T02:33:09;3.37;;;2.20;;
12253;SDS011;6189;52.526;13.390;2022-09-21T02:35:59;4.27;;;2.90;;
12253;SDS011;6189;52.526;13.390;2022-09-21T02:38:52;3.40;;;2.87;;
12253;SDS011;6189;52.526;13.390;2022-09-21T02:41:51;5.37;;;2.70;;
12253;SDS011;6189;52.526;13.390;2022-09-21T02:44:46;4.53;;;3.10;;
12253;SDS011;6189;52.526;13.390;2022-09-21T02:47:40;3.97;;;2.80;;
12253;SDS011;6189;52.526;13.390;2022-09-21T02:50:30;3.53;;;2.43;;
12253;SDS011;6189;52.526;13.390;2022-09-21T02:53:23;6.90;;;2.70;;
12253;SDS011;6189;52.526;13.390;2022-09-21T02:56:13;3.03;;;2.70;;
12253;SDS011;6189;52.526;13.390;2022-09-21T02:59:00;3.07;;;2.30;;
12253;SDS011;6189;52.526;13.390;2022-09-21T03:01:48;5.00;;;2.60;;
12253;SDS011;6189;52.526;13.390;2022-09-21T03:04:33;5.53;;;2.53;;
12253;SDS011;6189;52.526;13.390;2022-09-21T03:07:19;5.43;;;2.70;;
12253;SDS011;6189;52.526;13.390;2022-09-21T03:10:05;4.17;;;2.80;;
12253;SDS011;6189;52.526;13.390;2022-09-21T03:12:56;3.97;;;2.57;;
12253;SDS011;6189;52.526;13.390;2022-09-21T03:15:42;4.03;;;2.30;;
12253;SDS011;6189;52.526;13.390;2022-09-21T03:18:29;5.57;;;2.70;;
12253;SDS011;6189;52.526;13.390;2022-09-21T03:21:16;4.70;;;3.07;;
12253;SDS011;6189;52.526;13.390;2022-09-21T03:24:01;7.30;;;2.63;;
12253;SDS011;6189;52.526;13.390;2022-09-21T03:26:47;5.10;;;2.57;;
12253;SDS011;6189;52.526;13.390;2022-09-21T03:29:34;4.57;;;2.63;;
12253;SDS011;6189;52.526;13.390;2022-09-21T03:32:20;3.70;;;2.77;;
12253;SDS011;6189;52.526;13.390;2022-09-21T03:35:05;3.97;;;2.77;;
12253;SDS011;6189;52.526;13.390;2022-09-21T03:37:51;3.83;;;2.87;;
12253;SDS011;6189;52.526;13.390;2022-09-21T03:40:38;4.80;;;2.70;;
12253;SDS011;6189;52.526;13.390;2022-09-21T03:43:23;3.97;;;2.90;;
12253;SDS011;6189;52.526;13.390;2022-09-21T03:46:10;5.27;;;3.10;;
12253;SDS011;6189;52.526;13.390;2022-09-21T03:48:56;5.03;;;3.07;;
12253;SDS011;6189;52.526;13.390;2022-09-21T03:51:41;6.43;;;3.10;;
12253;SDS011;6189;52.526;13.390;2022-09-21T03:54:27;5.03;;;3.00;;
12253;SDS011;6189;52.526;13.390;2022-09-21T03:57:12;5.63;;;3.43;;
12253;SDS011;6189;52.526;13.390;2022-09-21T03:59:58;4.70;;;3.10;;
12253;SDS011;6189;52.526;13.390;2022-09-21T04:02:47;6.60;;;2.93;;
12253;SDS011;6189;52.526;13.390;2022-09-21T04:05:33;3.30;;;2.80;;
12253;SDS011;6189;52.526;13.390;2022-09-21T04:08:18;5.33;;;3.00;;
12253;SDS011;6189;52.526;13.390;2022-09-21T04:11:08;3.57;;;2.53;;
12253;SDS011;6189;52.526;13.390;2022-09-21T04:13:54;5.63;;;3.20;;
12253;SDS011;6189;52.526;13.390;2022-09-21T04:16:40;4.70;;;3.10;;
12253;SDS011;6189;52.526;13.390;2022-09-21T04:19:27;4.00;;;2.93;;
12253;SDS011;6189;52.526;13.390;2022-09-21T04:22:12;5.27;;;3.40;;
12253;SDS011;6189;52.526;13.390;2022-09-21T04:24:58;7.93;;;2.97;;
12253;SDS011;6189;52.526;13.390;2022-09-21T04:27:44;6.23;;;3.53;;
12253;SDS011;6189;52.526;13.390;2022-09-21T04:30:29;5.17;;;3.00;;
12253;SDS011;6189;52.526;13.390;2022-09-21T04:33:16;5.70;;;2.93;;
12253;SDS011;6189;52.526;13.390;2022-09-21T04:36:03;6.23;;;3.27;;
12253;SDS011;6189;52.526;13.390;2022-09-21T04:38:49;4.27;;;2.57;;
12253;SDS011;6189;52.526;13.390;2022-09-21T04:41:35;5.93;;;3.00;;
12253;SDS011;6189;52.526;13.390;2022-09-21T04:44:20;4.37;;;3.00;;
12253;SDS011;6189;52.526;13.390;2022-09-21T04:47:06;3.23;;;2.80;;
12253;SDS011;6189;52.526;13.390;2022-09-21T04:49:51;5.30;;;2.60;;
12253;SDS011;6189;52.526;13.390;2022-09-21T04:52:38;5.67;;;2.80;;
12253;SDS011;6189;52.526;13.390;2022-09-21T04:55:24;6.97;;;3.13;;
12253;SDS011;6189;52.526;13.390;2022-09-21T04:58:10;3.60;;;3.03;;
12253;SDS011;6189;52.526;13.390;2022-09-21T05:00:56;3.47;;;2.60;;
12253;SDS011;6189;52.526;13.390;2022-09-21T05:03:41;6.43;;;3.27;;
12253;SDS011;6189;52.526;13.390;2022-09-21T05:06:27;5.60;;;2.87;;
12253;SDS011;6189;52.526;13.390;2022-09-21T05:09:14;6.57;;;3.40;;
12253;SDS011;6189;52.526;13.390;2022-09-21T05:12:18;7.70;;;3.67;;
12253;SDS011;6189;52.526;13.390;2022-09-21T05:15:03;5.30;;;3.53;;
12253;SDS011;6189;52.526;13.390;2022-09-21T05:17:49;7.37;;;3.70;;
12253;SDS011;6189;52.526;13.390;2022-09-21T05:20:35;5.93;;;3.20;;
12253;SDS011;6189;52.526;13.390;2022-09-21T05:23:20;7.87;;;3.40;;
12253;SDS011;6189;52.526;13.390;2022-09-21T05:26:07;6.77;;;3.13;;
12253;SDS011;6189;52.526;13.390;2022-09-21T05:28:53;9.40;;;4.13;;
12253;SDS011;6189;52.526;13.390;2022-09-21T05:31:40;7.17;;;4.20;;
12253;SDS011;6189;52.526;13.390;2022-09-21T05:34:33;7.10;;;4.57;;
12253;SDS011;6189;52.526;13.390;2022-09-21T05:37:33;7.70;;;3.97;;
12253;SDS011;6189;52.526;13.390;2022-09-21T05:40:28;10.07;;;4.43;;
12253;SDS011;6189;52.526;13.390;2022-09-21T05:43:16;7.63;;;4.53;;
12253;SDS011;6189;52.526;13.390;2022-09-21T05:46:02;12.83;;;5.10;;
12253;SDS011;6189;52.526;13.390;2022-09-21T05:48:59;7.77;;;4.37;;
12253;SDS011;6189;52.526;13.390;2022-09-21T05:51:49;6.30;;;4.23;;
12253;SDS011;6189;52.526;13.390;2022-09-21T05:54:45;8.57;;;5.13;;
12253;SDS011;6189;52.526;13.390;2022-09-21T05:57:43;6.60;;;4.30;;
12253;SDS011;6189;52.526;13.390;2022-09-21T06:00:38;7.70;;;5.00;;
12253;SDS011;6189;52.526;13.390;2022-09-21T06:03:29;6.27;;;3.90;;
12253;SDS011;6189;52.526;13.390;2022-09-21T06:06:19;7.27;;;3.67;;
12253;SDS011;6189;52.526;13.390;2022-09-21T06:09:04;6.17;;;4.20;;
12253;SDS011;6189;52.526;13.390;2022-09-21T06:11:50;5.63;;;3.50;;
12253;SDS011;6189;52.526;13.390;2022-09-21T06:14:36;7.87;;;3.80;;
12253;SDS011;6189;52.526;13.390;2022-09-21T06:17:23;4.77;;;3.67;;
12253;SDS011;6189;52.526;13.390;2022-09-21T06:20:09;7.20;;;3.70;;
12253;SDS011;6189;52.526;13.390;2022-09-21T06:22:58;9.37;;;4.57;;
12253;SDS011;6189;52.526;13.390;2022-09-21T06:25:49;8.53;;;4.23;;
12253;SDS011;6189;52.526;13.390;2022-09-21T06:28:35;7.17;;;4.50;;
12253;SDS011;6189;52.526;13.390;2022-09-21T06:31:21;6.77;;;4.43;;
12253;SDS011;6189;52.526;13.390;2022-09-21T06:34:08;9.23;;;4.67;;
12253;SDS011;6189;52.526;13.390;2022-09-21T06:36:53;6.87;;;4.50;;
12253;SDS011;6189;52.526;13.390;2022-09-21T06:39:39;11.37;;;4.73;;
12253;SDS011;6189;52.526;13.390;2022-09-21T06:42:25;6.00;;;4.30;;
12253;SDS011;6189;52.526;13.390;2022-09-21T06:45:11;6.73;;;4.33;;
12253;SDS011;6189;52.526;13.390;2022-09-21T06:47:57;7.93;;;4.87;;
12253;SDS011;6189;52.526;13.390;2022-09-21T06:50:44;6.13;;;4.40;;
12253;SDS011;6189;52.526;13.390;2022-09-21T06:53:30;5.20;;;4.13;;
12253;SDS011;6189;52.526;13.390;2022-09-21T06:56:17;6.17;;;3.67;;
12253;SDS011;6189;52.526;13.390;2022-09-21T06:59:02;5.17;;;3.87;;
12253;SDS011;6189;52.526;13.390;2022-09-21T07:01:48;5.97;;;4.00;;
12253;SDS011;6189;52.526;13.390;2022-09-21T07:04:33;7.63;;;4.30;;
12253;SDS011;6189;52.526;13.390;2022-09-21T07:07:21;8.03;;;4.97;;
12253;SDS011;6189;52.526;13.390;2022-09-21T07:10:06;7.50;;;4.87;;
12253;SDS011;6189;52.526;13.390;2022-09-21T07:12:52;6.20;;;4.63;;
12253;SDS011;6189;52.526;13.390;2022-09-21T07:15:38;6.53;;;3.70;;
12253;SDS011;6189;52.526;13.390;2022-09-21T07:18:23;9.37;;;5.03;;
12253;SDS011;6189;52.526;13.390;2022-09-21T07:21:09;7.97;;;4.50;;
12253;SDS011;6189;52.526;13.390;2022-09-21T07:23:58;10.27;;;4.47;;
12253;SDS011;6189;52.526;13.390;2022-09-21T07:26:45;7.23;;;4.23;;
12253;SDS011;6189;52.526;13.390;2022-09-21T07:29:30;6.97;;;4.87;;
12253;SDS011;6189;52.526;13.390;2022-09-21T07:32:16;8.87;;;4.67;;
12253;SDS011;6189;52.526;13.390;2022-09-21T07:35:02;7.50;;;4.60;;
12253;SDS011;6189;52.526;13.390;2022-09-21T07:37:48;6.30;;;4.83;;
12253;SDS011;6189;52.526;13.390;2022-09-21T07:40:35;8.03;;;5.43;;
12253;SDS011;6189;52.526;13.390;2022-09-21T07:43:20;7.23;;;4.70;;
12253;SDS011;6189;52.526;13.390;2022-09-21T07:46:06;7.97;;;4.67;;
12253;SDS011;6189;52.526;13.390;2022-09-21T07:48:52;6.37;;;4.40;;
12253;SDS011;6189;52.526;13.390;2022-09-21T07:51:38;7.17;;;5.10;;
12253;SDS011;6189;52.526;13.390;2022-09-21T07:54:23;6.53;;;5.30;;
12253;SDS011;6189;52.526;13.390;2022-09-21T07:57:10;8.37;;;5.27;;
12253;SDS011;6189;52.526;13.390;2022-09-21T08:00:13;8.77;;;5.40;;
12253;SDS011;6189;52.526;13.390;2022-09-21T08:02:59;5.30;;;4.63;;
12253;SDS011;6189;52.526;13.390;2022-09-21T08:05:45;6.17;;;5.37;;
12253;SDS011;6189;52.526;13.390;2022-09-21T08:08:30;8.20;;;5.13;;
12253;SDS011;6189;52.526;13.390;2022-09-21T08:11:16;7.13;;;5.50;;
12253;SDS011;6189;52.526;13.390;2022-09-21T08:14:06;5.87;;;5.17;;
12253;SDS011;6189;52.526;13.390;2022-09-21T08:16:51;9.63;;;4.30;;
12253;SDS011;6189;52.526;13.390;2022-09-21T08:19:37;8.60;;;5.07;;
12253;SDS011;6189;52.526;13.390;2022-09-21T08:22:22;9.83;;;5.43;;
12253;SDS011;6189;52.526;13.390;2022-09-21T08:25:08;5.63;;;4.30;;
12253;SDS011;6189;52.526;13.390;2022-09-21T08:27:56;6.73;;;4.77;;
12253;SDS011;6189;52.526;13.390;2022-09-21T08:30:44;9.40;;;5.40;;
12253;SDS011;6189;52.526;13.390;2022-09-21T08:33:30;7.73;;;4.87;;
12253;SDS011;6189;52.526;13.390;2022-09-21T08:36:15;9.70;;;4.80;;
12253;SDS011;6189;52.526;13.390;2022-09-21T08:39:01;8.37;;;4.70;;
12253;SDS011;6189;52.526;13.390;2022-09-21T08:41:54;8.13;;;5.23;;
12253;SDS011;6189;52.526;13.390;2022-09-21T08:44:47;9.37;;;4.90;;
12253;SDS011;6189;52.526;13.390;2022-09-21T08:47:39;6.73;;;4.67;;
12253;SDS011;6189;52.526;13.390;2022-09-21T08:50:29;5.93;;;4.63;;
12253;SDS011;6189;52.526;13.390;2022-09-21T08:53:18;7.27;;;4.80;;
12253;SDS011;6189;52.526;13.390;2022-09-21T08:56:09;7.53;;;5.07;;
12253;SDS011;6189;52.526;13.390;2022-09-21T08:58:56;6.53;;;5.03;;
12253;SDS011;6189;52.526;13.390;2022-09-21T09:01:46;6.07;;;4.60;;
12253;SDS011;6189;52.526;13.390;2022-09-21T09:04:47;9.00;;;5.63;;
12253;SDS011;6189;52.526;13.390;2022-09-21T09:07:45;6.57;;;5.17;;
12253;SDS011;6189;52.526;13.390;2022-09-21T09:10:44;6.10;;;4.83;;
12253;SDS011;6189;52.526;13.390;2022-09-21T09:13:53;5.77;;;5.10;;
12253;SDS011;6189;52.526;13.390;2022-09-21T09:16:53;8.53;;;5.40;;
12253;SDS011;6189;52.526;13.390;2022-09-21T09:19:53;6.27;;;4.73;;
12253;SDS011;6189;52.526;13.390;2022-09-21T09:22:42;11.17;;;4.57;;
12253;SDS011;6189;52.526;13.390;2022-09-21T09:25:31;8.20;;;4.10;;
12253;SDS011;6189;52.526;13.390;2022-09-21T09:28:23;8.33;;;4.50;;
12253;SDS011;6189;52.526;13.390;2022-09-21T09:31:15;11.23;;;4.07;;
12253;SDS011;6189;52.526;13.390;2022-09-21T09:34:07;6.60;;;3.30;;
12253;SDS011;6189;52.526;13.390;2022-09-21T09:36:58;5.33;;;3.30;;
12253;SDS011;6189;52.526;13.390;2022-09-21T09:39:53;8.03;;;3.97;;
12253;SDS011;6189;52.526;13.390;2022-09-21T09:42:42;5.60;;;3.43;;
12253;SDS011;6189;52.526;13.390;2022-09-21T09:45:42;5.43;;;3.57;;
12253;SDS011;6189;52.526;13.390;2022-09-21T09:48:48;3.53;;;3.10;;
12253;SDS011;6189;52.526;13.390;2022-09-21T09:51:42;4.73;;;3.13;;
12253;SDS011;6189;52.526;13.390;2022-09-21T09:54:32;3.83;;;2.87;;
12253;SDS011;6189;52.526;13.390;2022-09-21T09:57:19;5.30;;;2.87;;
12253;SDS011;6189;52.526;13.390;2022-09-21T10:00:12;3.20;;;2.60;;
12253;SDS011;6189;52.526;13.390;2022-09-21T10:02:59;4.87;;;3.50;;
12253;SDS011;6189;52.526;13.390;2022-09-21T10:05:45;5.30;;;3.27;;
12253;SDS011;6189;52.526;13.390;2022-09-21T10:08:41;7.13;;;3.10;;
12253;SDS011;6189;52.526;13.390;2022-09-21T10:11:36;3.87;;;2.20;;
12253;SDS011;6189;52.526;13.390;2022-09-21T10:14:23;3.20;;;2.13;;
12253;SDS011;6189;52.526;13.390;2022-09-21T10:17:11;3.40;;;2.00;;
12253;SDS011;6189;52.526;13.390;2022-09-21T10:20:02;4.20;;;2.00;;
12253;SDS011;6189;52.526;13.390;2022-09-21T10:22:52;1.70;;;1.33;;
12253;SDS011;6189;52.526;13.390;2022-09-21T10:25:39;3.10;;;1.63;;
12253;SDS011;6189;52.526;13.390;2022-09-21T10:28:27;2.30;;;1.50;;
12253;SDS011;6189;52.526;13.390;2022-09-21T10:31:16;3.67;;;1.67;;
12253;SDS011;6189;52.526;13.390;2022-09-21T10:34:10;2.63;;;1.67;;
12253;SDS011;6189;52.526;13.390;2022-09-21T10:36:58;5.27;;;1.90;;
12253;SDS011;6189;52.526;13.390;2022-09-21T10:39:45;3.20;;;1.30;;
12253;SDS011;6189;52.526;13.390;2022-09-21T10:42:33;3.77;;;1.30;;
12253;SDS011;6189;52.526;13.390;2022-09-21T10:45:23;2.67;;;1.37;;
12253;SDS011;6189;52.526;13.390;2022-09-21T10:48:13;3.93;;;1.10;;
12253;SDS011;6189;52.526;13.390;2022-09-21T10:51:02;2.90;;;1.30;;
12253;SDS011;6189;52.526;13.390;2022-09-21T10:53:48;3.23;;;1.57;;
12253;SDS011;6189;52.526;13.390;2022-09-21T10:56:34;2.20;;;1.50;;
12253;SDS011;6189;52.526;13.390;2022-09-21T10:59:21;1.93;;;1.20;;
12253;SDS011;6189;52.526;13.390;2022-09-21T11:02:24;1.60;;;1.40;;
12253;SDS011;6189;52.526;13.390;2022-09-21T11:05:14;2.50;;;1.43;;
12253;SDS011;6189;52.526;13.390;2022-09-21T11:08:06;2.10;;;1.50;;
12253;SDS011;6189;52.526;13.390;2022-09-21T11:11:05;2.00;;;1.40;;
12253;SDS011;6189;52.526;13.390;2022-09-21T11:14:04;1.53;;;1.13;;
12253;SDS011;6189;52.526;13.390;2022-09-21T11:16:59;1.80;;;1.27;;
12253;SDS011;6189;52.526;13.390;2022-09-21T11:19:55;2.63;;;1.30;;
12253;SDS011;6189;52.526;13.390;2022-09-21T11:22:49;3.73;;;1.50;;
12253;SDS011;6189;52.526;13.390;2022-09-21T11:25:45;3.00;;;1.30;;
12253;SDS011;6189;52.526;13.390;2022-09-21T11:28:37;8.73;;;1.90;;
12253;SDS011;6189;52.526;13.390;2022-09-21T11:31:40;7.20;;;1.87;;
12253;SDS011;6189;52.526;13.390;2022-09-21T11:34:44;3.43;;;1.20;;
12253;SDS011;6189;52.526;13.390;2022-09-21T11:37:57;2.00;;;1.47;;
12253;SDS011;6189;52.526;13.390;2022-09-21T11:41:00;2.40;;;1.47;;
12253;SDS011;6189;52.526;13.390;2022-09-21T11:44:12;2.17;;;1.23;;
12253;SDS011;6189;52.526;13.390;2022-09-21T11:47:10;2.33;;;1.10;;
12253;SDS011;6189;52.526;13.390;2022-09-21T11:50:18;5.27;;;1.60;;
12253;SDS011;6189;52.526;13.390;2022-09-21T11:53:24;3.17;;;1.20;;
12253;SDS011;6189;52.526;13.390;2022-09-21T11:56:24;3.20;;;1.17;;
12253;SDS011;6189;52.526;13.390;2022-09-21T12:02:42;2.30;;;1.30;;
12253;SDS011;6189;52.526;13.390;2022-09-21T12:05:48;3.43;;;1.87;;
12253;SDS011;6189;52.526;13.390;2022-09-21T12:08:47;6.20;;;1.30;;
12253;SDS011;6189;52.526;13.390;2022-09-21T12:11:45;1.70;;;1.33;;
12253;SDS011;6189;52.526;13.390;2022-09-21T12:14:36;1.77;;;1.10;;
12253;SDS011;6189;52.526;13.390;2022-09-21T12:17:32;1.30;;;1.13;;
12253;SDS011;6189;52.526;13.390;2022-09-21T12:20:25;1.73;;;1.10;;
12253;SDS011;6189;52.526;13.390;2022-09-21T12:23:18;1.90;;;1.20;;
12253;SDS011;6189;52.526;13.390;2022-09-21T12:26:10;2.63;;;1.50;;
12253;SDS011;6189;52.526;13.390;2022-09-21T12:29:02;2.13;;;1.40;;
12253;SDS011;6189;52.526;13.390;2022-09-21T12:31:54;4.33;;;1.40;;
12253;SDS011;6189;52.526;13.390;2022-09-21T12:34:48;4.00;;;1.40;;
12253;SDS011;6189;52.526;13.390;2022-09-21T12:37:40;6.10;;;1.10;;
12253;SDS011;6189;52.526;13.390;2022-09-21T12:40:32;2.23;;;1.00;;
12253;SDS011;6189;52.526;13.390;2022-09-21T12:43:27;1.80;;;1.40;;
12253;SDS011;6189;52.526;13.390;2022-09-21T12:46:19;2.17;;;1.20;;
12253;SDS011;6189;52.526;13.390;2022-09-21T12:49:10;4.23;;;1.60;;
12253;SDS011;6189;52.526;13.390;2022-09-21T12:52:00;1.80;;;1.23;;
12253;SDS011;6189;52.526;13.390;2022-09-21T12:54:51;1.63;;;1.10;;
12253;SDS011;6189;52.526;13.390;2022-09-21T12:57:46;2.67;;;1.27;;
12253;SDS011;6189;52.526;13.390;2022-09-21T13:00:39;3.00;;;1.30;;
12253;SDS011;6189;52.526;13.390;2022-09-21T13:03:31;2.83;;;1.27;;
12253;SDS011;6189;52.526;13.390;2022-09-21T13:06:32;2.10;;;1.30;;
12253;SDS011;6189;52.526;13.390;2022-09-21T13:09:38;1.97;;;1.33;;
12253;SDS011;6189;52.526;13.390;2022-09-21T13:12:26;1.47;;;1.30;;
12253;SDS011;6189;52.526;13.390;2022-09-21T13:15:19;2.87;;;1.20;;
12253;SDS011;6189;52.526;13.390;2022-09-21T13:18:16;1.93;;;1.20;;
12253;SDS011;6189;52.526;13.390;2022-09-21T13:21:15;1.13;;;0.90;;
12253;SDS011;6189;52.526;13.390;2022-09-21T13:24:03;1.63;;;1.07;;
12253;SDS011;6189;52.526;13.390;2022-09-21T13:26:51;3.40;;;1.40;;
12253;SDS011;6189;52.526;13.390;2022-09-21T13:29:39;3.70;;;1.30;;
12253;SDS011;6189;52.526;13.390;2022-09-21T13:32:25;2.33;;;1.30;;
12253;SDS011;6189;52.526;13.390;2022-09-21T13:35:52;2.87;;;1.40;;
12253;SDS011;6189;52.526;13.390;2022-09-21T13:38:56;1.50;;;1.40;;
12253;SDS011;6189;52.526;13.390;2022-09-21T13:41:47;4.27;;;1.63;;
12253;SDS011;6189;52.526;13.390;2022-09-21T13:44:38;2.33;;;1.50;;
12253;SDS011;6189;52.526;13.390;2022-09-21T13:47:27;2.07;;;1.40;;
12253;SDS011;6189;52.526;13.390;2022-09-21T13:50:18;2.33;;;1.40;;
12253;SDS011;6189;52.526;13.390;2022-09-21T13:53:16;2.40;;;1.20;;
12253;SDS011;6189;52.526;13.390;2022-09-21T13:59:11;3.30;;;1.50;;
12253;SDS011;6189;52.526;13.390;2022-09-21T14:02:18;2.50;;;1.30;;
12253;SDS011;6189;52.526;13.390;2022-09-21T14:05:16;3.27;;;1.10;;
12253;SDS011;6189;52.526;13.390;2022-09-21T14:08:18;2.67;;;1.20;;
12253;SDS011;6189;52.526;13.390;2022-09-21T14:11:14;1.53;;;1.27;;
12253;SDS011;6189;52.526;13.390;2022-09-21T14:14:04;2.10;;;1.70;;
12253;SDS011;6189;52.526;13.390;2022-09-21T14:16:54;2.80;;;1.90;;
12253;SDS011;6189;52.526;13.390;2022-09-21T14:23:09;3.23;;;1.40;;
12253;SDS011;6189;52.526;13.390;2022-09-21T14:25:58;5.33;;;1.60;;
12253;SDS011;6189;52.526;13.390;2022-09-21T14:28:47;3.27;;;1.07;;
12253;SDS011;6189;52.526;13.390;2022-09-21T14:31:35;1.33;;;1.07;;
12253;SDS011;6189;52.526;13.390;2022-09-21T14:34:23;1.10;;;1.00;;
12253;SDS011;6189;52.526;13.390;2022-09-21T14:37:19;2.40;;;1.20;;
12253;SDS011;6189;52.526;13.390;2022-09-21T14:40:15;2.17;;;1.40;;
12253;SDS011;6189;52.526;13.390;2022-09-21T14:43:06;1.20;;;1.10;;
12253;SDS011;6189;52.526;13.390;2022-09-21T14:46:13;1.57;;;1.17;;
12253;SDS011;6189;52.526;13.390;2022-09-21T14:52:26;1.40;;;1.30;;
12253;SDS011;6189;52.526;13.390;2022-09-21T14:55:22;1.70;;;1.30;;
12253;SDS011;6189;52.526;13.390;2022-09-21T14:58:25;1.43;;;1.03;;
12253;SDS011;6189;52.526;13.390;2022-09-21T15:01:19;1.60;;;1.00;;
12253;SDS011;6189;52.526;13.390;2022-09-21T15:04:40;1.97;;;1.40;;
12253;SDS011;6189;52.526;13.390;2022-09-21T15:07:44;3.30;;;1.10;;
12253;SDS011;6189;52.526;13.390;2022-09-21T15:10:52;1.57;;;1.07;;
12253;SDS011;6189;52.526;13.390;2022-09-21T15:13:48;2.07;;;1.00;;
12253;SDS011;6189;52.526;13.390;2022-09-21T15:17:17;2.73;;;1.23;;
12253;SDS011;6189;52.526;13.390;2022-09-21T15:20:14;2.40;;;1.10;;
12253;SDS011;6189;52.526;13.390;2022-09-21T15:23:10;1.33;;;1.00;;
12253;SDS011;6189;52.526;13.390;2022-09-21T15:26:02;1.40;;;1.00;;
12253;SDS011;6189;52.526;13.390;2022-09-21T15:28:53;1.67;;;1.30;;
12253;SDS011;6189;52.526;13.390;2022-09-21T15:31:41;1.67;;;0.97;;
12253;SDS011;6189;52.526;13.390;2022-09-21T15:34:27;1.70;;;1.10;;
12253;SDS011;6189;52.526;13.390;2022-09-21T15:37:13;2.50;;;1.00;;
12253;SDS011;6189;52.526;13.390;2022-09-21T15:40:01;1.17;;;0.90;;
12253;SDS011;6189;52.526;13.390;2022-09-21T15:42:57;1.33;;;1.17;;
12253;SDS011;6189;52.526;13.390;2022-09-21T15:45:48;0.77;;;0.77;;
12253;SDS011;6189;52.526;13.390;2022-09-21T15:48:37;1.00;;;0.90;;
12253;SDS011;6189;52.526;13.390;2022-09-21T15:51:26;1.13;;;1.00;;
12253;SDS011;6189;52.526;13.390;2022-09-21T15:54:19;2.23;;;1.10;;
12253;SDS011;6189;52.526;13.390;2022-09-21T15:57:23;1.47;;;1.00;;
12253;SDS011;6189;52.526;13.390;2022-09-21T16:00:17;1.53;;;1.20;;
12253;SDS011;6189;52.526;13.390;2022-09-21T16:03:17;1.43;;;1.30;;
12253;SDS011;6189;52.526;13.390;2022-09-21T16:09:26;2.20;;;1.23;;
12253;SDS011;6189;52.526;13.390;2022-09-21T16:15:24;2.07;;;1.30;;
12253;SDS011;6189;52.526;13.390;2022-09-21T16:18:27;2.53;;;0.90;;
12253;SDS011;6189;52.526;13.390;2022-09-21T16:21:21;1.47;;;0.87;;
12253;SDS011;6189;52.526;13.390;2022-09-21T16:24:15;1.50;;;1.10;;
12253;SDS011;6189;52.526;13.390;2022-09-21T16:27:03;3.00;;;1.20;;
12253;SDS011;6189;52.526;13.390;2022-09-21T16:29:50;1.50;;;1.10;;
12253;SDS011;6189;52.526;13.390;2022-09-21T16:32:37;2.20;;;1.50;;
12253;SDS011;6189;52.526;13.390;2022-09-21T16:35:25;1.70;;;1.20;;
12253;SDS011;6189;52.526;13.390;2022-09-21T16:38:14;1.63;;;1.33;;
12253;SDS011;6189;52.526;13.390;2022-09-21T16:41:00;1.73;;;1.43;;
12253;SDS011;6189;52.526;13.390;2022-09-21T16:43:46;2.80;;;1.33;;
12253;SDS011;6189;52.526;13.390;2022-09-21T16:46:33;2.00;;;1.47;;
12253;SDS011;6189;52.526;13.390;2022-09-21T16:49:24;2.10;;;1.47;;
12253;SDS011;6189;52.526;13.390;2022-09-21T16:52:14;2.20;;;1.37;;
12253;SDS011;6189;52.526;13.390;2022-09-21T16:54:59;2.10;;;1.27;;
12253;SDS011;6189;52.526;13.390;2022-09-21T16:57:45;1.20;;;1.07;;
12253;SDS011;6189;52.526;13.390;2022-09-21T17:00:33;1.97;;;1.13;;
12253;SDS011;6189;52.526;13.390;2022-09-21T17:03:23;1.57;;;1.20;;
12253;SDS011;6189;52.526;13.390;2022-09-21T17:06:11;1.77;;;1.23;;
12253;SDS011;6189;52.526;13.390;2022-09-21T17:09:04;1.80;;;1.30;;
12253;SDS011;6189;52.526;13.390;2022-09-21T17:12:01;2.10;;;1.50;;
12253;SDS011;6189;52.526;13.390;2022-09-21T17:14:48;2.40;;;1.83;;
12253;SDS011;6189;52.526;13.390;2022-09-21T17:17:34;4.00;;;2.23;;
12253;SDS011;6189;52.526;13.390;2022-09-21T17:20:22;2.57;;;1.87;;
12253;SDS011;6189;52.526;13.390;2022-09-21T17:23:12;2.20;;;1.83;;
12253;SDS011;6189;52.526;13.390;2022-09-21T17:25:59;2.10;;;1.90;;
12253;SDS011;6189;52.526;13.390;2022-09-21T17:28:45;5.73;;;2.83;;